Time;durP1;ratioP1;P1;durP2;ratioP2;P2;SDS_P1;SDS_P2;PMS_P1;PMS_P2;Temp;Humidity;BMP_temperature;BMP_pressure;BME280_temperature;BME280_humidity;BME280_pressure;Samples;Min_cycle;Max_cycle;Signal;HPM_P1;HPM_P2
2022/09/21 00:01:05;;;;;;;6.13;3.97;;;18.80;58.70;;;;;;5068019;28;20029;-90
2022/09/21 00:03:31;;;;;;;6.65;3.90;;;18.50;59.50;;;;;;5056682;28;20050;-84
2022/09/21 00:06:15;;;;;;;5.18;3.55;;;18.50;59.30;;;;;;5050882;28;20040;-78
2022/09/21 00:08:42;;;;;;;5.80;4.07;;;18.60;59.10;;;;;;5052859;28;20123;-82
2022/09/21 00:11:12;;;;;;;7.68;3.88;;;18.50;59.20;;;;;;5071615;28;20029;-80
2022/09/21 00:13:38;;;;;;;;;;;18.60;59.00;;;;;;5043109;28;20033;-86
2022/09/21 00:16:05;;;;;;;5.35;3.60;;;18.80;58.80;;;;;;5054794;28;20103;-89
2022/09/21 00:18:31;;;;;;;5.47;4.03;;;18.80;58.70;;;;;;5051043;28;20061;-92
2022/09/21 00:20:57;;;;;;;5.45;4.10;;;18.80;59.10;;;;;;5042084;28;20055;-87
2022/09/21 00:23:25;;;;;;;7.93;4.75;;;18.70;59.30;;;;;;5036798;28;20024;-89
2022/09/21 00:25:51;;;;;;;5.93;3.65;;;18.70;59.00;;;;;;5054384;28;20044;-86
2022/09/21 00:28:16;;;;;;;5.95;4.40;;;18.70;59.10;;;;;;5036415;28;20025;-78
2022/09/21 00:30:42;;;;;;;5.63;4.28;;;18.80;58.80;;;;;;5058291;28;20036;-87
2022/09/21 00:33:08;;;;;;;6.32;4.40;;;18.90;58.50;;;;;;5047397;28;20025;-87
2022/09/21 00:35:33;;;;;;;5.30;3.67;;;18.90;58.70;;;;;;5037284;28;20031;-85
2022/09/21 00:38:01;;;;;;;5.80;4.03;;;18.90;58.70;;;;;;5053653;28;20070;-83
2022/09/21 00:40:26;;;;;;;6.65;4.47;;;18.70;58.50;;;;;;5036269;28;20482;-88
2022/09/21 00:42:52;;;;;;;6.10;4.35;;;18.60;58.60;;;;;;5036033;28;20027;-89
2022/09/21 00:45:21;;;;;;;6.05;4.20;;;18.60;58.70;;;;;;5052962;28;20024;-87
2022/09/21 00:47:50;;;;;;;5.57;4.13;;;18.50;59.20;;;;;;5055963;28;20029;-87
2022/09/21 00:50:20;;;;;;;6.45;4.40;;;18.40;59.40;;;;;;5066291;28;20383;-84
2022/09/21 00:52:50;;;;;;;7.13;4.60;;;18.40;59.40;;;;;;5050841;28;20087;-95
2022/09/21 00:55:36;;;;;;;6.55;4.35;;;18.20;59.70;;;;;;5054569;28;20115;-89
2022/09/21 00:58:08;;;;;;;5.63;4.18;;;18.10;59.60;;;;;;5055418;28;20036;-83
2022/09/21 01:00:36;;;;;;;6.43;4.13;;;18.20;59.40;;;;;;5042664;28;20026;-79
2022/09/21 01:03:03;;;;;;;5.95;4.50;;;18.30;59.80;;;;;;5037748;28;20075;-85
2022/09/21 01:05:29;;;;;;;6.30;4.60;;;18.30;59.20;;;;;;5049177;28;20019;-80
2022/09/21 01:07:59;;;;;;;8.15;4.70;;;18.40;59.20;;;;;;5059126;28;20025;-86
2022/09/21 01:10:26;;;;;;;7.00;4.15;;;18.50;58.60;;;;;;5058899;28;20021;-78
2022/09/21 01:13:13;;;;;;;8.15;4.20;;;18.50;59.00;;;;;;5058954;28;20056;-80
2022/09/21 01:16:00;;;;;;;6.28;4.22;;;18.60;58.50;;;;;;5059409;28;20052;-94
2022/09/21 01:18:36;;;;;;;7.03;4.20;;;18.60;58.70;;;;;;5070866;28;20028;-91
2022/09/21 01:21:16;;;;;;;6.78;4.55;;;18.60;58.70;;;;;;5077520;28;20029;-86
2022/09/21 01:23:51;;;;;;;6.50;4.22;;;18.60;58.40;;;;;;5077580;28;20028;-85
2022/09/21 01:26:31;;;;;;;6.53;4.43;;;18.60;58.20;;;;;;5059509;28;20028;-89
2022/09/21 01:29:15;;;;;;;6.47;4.45;;;18.60;58.20;;;;;;5043703;28;20127;-89
2022/09/21 01:32:00;;;;;;;6.10;4.32;;;18.50;58.60;;;;;;5051161;28;20028;-80
2022/09/21 01:34:43;;;;;;;6.00;3.95;;;18.40;58.50;;;;;;5042924;28;20047;-89
2022/09/21 01:37:18;;;;;;;6.72;4.88;;;18.20;59.20;;;;;;5068767;28;20029;-92
2022/09/21 01:39:47;;;;;;;6.47;4.50;;;18.00;59.50;;;;;;5057016;28;20418;-88
2022/09/21 01:42:16;;;;;;;7.27;4.50;;;18.00;59.40;;;;;;5042835;28;20483;-83
2022/09/21 01:44:44;;;;;;;8.43;4.53;;;18.40;58.80;;;;;;5039146;28;20036;-94
2022/09/21 01:47:14;;;;;;;6.70;4.30;;;18.50;58.10;;;;;;5048215;28;20021;-88
2022/09/21 01:49:52;;;;;;;6.55;3.80;;;18.50;58.20;;;;;;5047102;28;20028;-91
2022/09/21 01:52:30;;;;;;;6.13;4.25;;;18.30;58.40;;;;;;5056274;28;20021;-89
2022/09/21 01:55:04;;;;;;;6.63;4.05;;;18.10;58.20;;;;;;5038964;28;20041;-93
2022/09/21 01:57:45;;;;;;;5.70;3.85;;;18.10;58.50;;;;;;5039443;28;20076;-87
2022/09/21 02:00:11;;;;;;;5.75;3.65;;;18.10;58.50;;;;;;5058503;28;20052;-89
2022/09/21 02:03:07;;;;;;;5.70;3.80;;;18.30;58.70;;;;;;5059185;28;20021;-80
2022/09/21 02:05:33;;;;;;;6.53;4.30;;;18.40;58.50;;;;;;5067909;28;20020;-93
2022/09/21 02:07:59;;;;;;;8.32;4.38;;;18.50;58.10;;;;;;5060421;28;20036;-85
2022/09/21 02:10:42;;;;;;;6.75;4.10;;;18.40;58.00;;;;;;5055378;28;20036;-88
2022/09/21 02:13:09;;;;;;;6.00;3.90;;;18.20;58.30;;;;;;5038275;28;20380;-94
2022/09/21 02:15:37;;;;;;;7.22;4.55;;;18.30;58.30;;;;;;5046013;28;20084;-85
2022/09/21 02:18:06;;;;;;;6.03;4.35;;;18.50;57.90;;;;;;5056649;28;20039;-88
2022/09/21 02:20:41;;;;;;;5.50;4.03;;;18.50;57.60;;;;;;5066543;28;20016;-79
2022/09/21 02:23:22;;;;;;;7.15;4.22;;;18.50;57.80;;;;;;5053797;28;20028;-90
2022/09/21 02:25:59;;;;;;;;;;;18.40;57.80;;;;;;5056097;28;20081;-85
2022/09/21 02:28:38;;;;;;;7.10;4.40;;;18.40;58.00;;;;;;5055806;28;19913;-89
2022/09/21 02:31:09;;;;;;;7.22;4.10;;;18.40;58.00;;;;;;5054521;28;20037;-91
2022/09/21 02:33:59;;;;;;;5.53;3.67;;;18.20;58.20;;;;;;5038479;28;20049;-86
2022/09/21 02:36:37;;;;;;;7.18;4.07;;;18.30;58.00;;;;;;5066414;28;20528;-94
2022/09/21 02:39:21;;;;;;;6.20;3.97;;;18.10;58.20;;;;;;5055367;28;20469;-93
2022/09/21 02:42:13;;;;;;;7.90;5.25;;;18.00;58.40;;;;;;5058346;28;20052;-92
2022/09/21 02:44:45;;;;;;;6.32;4.18;;;18.20;58.10;;;;;;5033470;28;20114;-92
2022/09/21 02:47:17;;;;;;;7.32;4.30;;;18.00;58.50;;;;;;5038296;28;20392;-95
2022/09/21 02:49:52;;;;;;;6.75;4.50;;;17.90;58.60;;;;;;5061301;28;20100;-85
2022/09/21 02:52:20;;;;;;;7.03;4.30;;;17.90;58.50;;;;;;5057922;28;20046;-91
2022/09/21 02:54:50;;;;;;;7.50;4.50;;;17.80;58.70;;;;;;5057807;28;20372;-92
2022/09/21 02:57:19;;;;;;;6.63;4.30;;;17.90;58.20;;;;;;5055571;28;20582;-87
2022/09/21 02:59:45;;;;;;;9.57;4.53;;;17.90;58.30;;;;;;5050902;28;20389;-89
2022/09/21 03:02:11;;;;;;;7.57;4.90;;;17.80;58.40;;;;;;5064417;28;20471;-84
2022/09/21 03:04:40;;;;;;;6.60;4.63;;;17.80;59.20;;;;;;5073816;28;20016;-82
2022/09/21 03:07:09;;;;;;;7.53;5.13;;;17.90;58.60;;;;;;5075297;28;20025;-81
2022/09/21 03:09:35;;;;;;;6.53;4.57;;;18.00;58.20;;;;;;5057597;28;20467;-91
2022/09/21 03:12:01;;;;;;;6.47;4.20;;;18.00;58.50;;;;;;5058003;28;20031;-88
2022/09/21 03:14:27;;;;;;;7.93;4.55;;;18.00;58.40;;;;;;5057269;28;20502;-88
2022/09/21 03:16:53;;;;;;;7.40;4.65;;;18.00;58.20;;;;;;5057662;28;20021;-94
2022/09/21 03:19:19;;;;;;;6.13;3.95;;;17.90;58.40;;;;;;5058375;28;20020;-93
2022/09/21 03:21:44;;;;;;;6.25;4.40;;;17.90;58.80;;;;;;5075217;28;20029;-91
2022/09/21 03:24:10;;;;;;;6.68;4.13;;;18.00;58.70;;;;;;5057403;28;20483;-92
2022/09/21 03:26:36;;;;;;;5.70;4.15;;;17.90;58.80;;;;;;5069693;28;20530;-95
2022/09/21 03:29:02;;;;;;;6.55;4.32;;;17.90;58.50;;;;;;5053852;28;20024;-93
2022/09/21 03:31:28;;;;;;;6.68;4.55;;;18.00;58.30;;;;;;5054595;28;20021;-88
2022/09/21 03:33:54;;;;;;;5.78;3.90;;;18.00;58.00;;;;;;5053993;28;20384;-86
2022/09/21 03:36:20;;;;;;;7.18;4.90;;;17.80;58.50;;;;;;5036834;28;20025;-84
2022/09/21 03:38:46;;;;;;;6.22;4.32;;;17.90;58.40;;;;;;5054827;28;20032;-81
2022/09/21 03:41:13;;;;;;;6.47;4.40;;;17.90;58.40;;;;;;5064744;28;20025;-90
2022/09/21 03:43:39;;;;;;;7.20;4.55;;;17.90;58.50;;;;;;5037038;28;20033;-88
2022/09/21 03:46:05;;;;;;;6.88;4.78;;;17.80;58.90;;;;;;5036340;28;20039;-93
2022/09/21 03:48:31;;;;;;;7.28;4.43;;;17.80;58.90;;;;;;5053697;28;20036;-85
2022/09/21 03:50:57;;;;;;;7.28;4.60;;;17.80;58.60;;;;;;5052575;28;20023;-82
2022/09/21 03:53:23;;;;;;;5.95;4.07;;;17.80;58.80;;;;;;5052836;28;20112;-93
2022/09/21 03:55:48;;;;;;;5.53;4.20;;;17.90;58.50;;;;;;5060243;28;20032;-86
2022/09/21 03:58:14;;;;;;;6.82;4.40;;;18.00;58.60;;;;;;5050439;28;20438;-80
2022/09/21 04:00:41;;;;;;;13.00;11.75;;;18.10;58.10;;;;;;5053040;28;20029;-93
2022/09/21 04:03:07;;;;;;;6.43;4.57;;;18.10;57.80;;;;;;5037168;28;20032;-90
2022/09/21 04:05:33;;;;;;;9.40;4.40;;;18.10;57.80;;;;;;5053911;28;20108;-82
2022/09/21 04:08:00;;;;;;;7.03;4.10;;;18.00;58.00;;;;;;5036746;28;20104;-84
2022/09/21 04:10:31;;;;;;;6.75;4.30;;;17.90;58.30;;;;;;5054324;28;20021;-88
2022/09/21 04:12:59;;;;;;;7.10;4.35;;;17.90;58.30;;;;;;5038108;28;20498;-84
2022/09/21 04:15:25;;;;;;;6.22;4.45;;;18.00;58.20;;;;;;5044481;28;20044;-80
2022/09/21 04:17:54;;;;;;;7.32;4.30;;;18.00;58.30;;;;;;5055733;28;20028;-85
2022/09/21 04:20:21;;;;;;;6.38;4.38;;;18.10;58.20;;;;;;5052853;28;20410;-87
2022/09/21 04:22:47;;;;;;;7.45;4.53;;;18.10;58.10;;;;;;5036301;28;20146;-86
2022/09/21 04:25:13;;;;;;;6.97;4.28;;;18.00;58.20;;;;;;5054090;28;20028;-82
2022/09/21 04:27:39;;;;;;;6.57;4.43;;;18.00;58.40;;;;;;5056077;28;20079;-85
2022/09/21 04:30:05;;;;;;;6.10;4.20;;;18.00;58.30;;;;;;5055630;28;20550;-85
2022/09/21 04:32:31;;;;;;;6.18;4.40;;;17.90;58.50;;;;;;5073769;28;20024;-85
2022/09/21 04:34:57;;;;;;;8.10;4.70;;;17.90;58.50;;;;;;5055208;28;20036;-77
2022/09/21 04:37:23;;;;;;;6.72;4.40;;;17.60;59.00;;;;;;5034500;28;20468;-80
2022/09/21 04:39:48;;;;;;;7.68;4.13;;;17.50;60.00;;;;;;5035505;28;20036;-78
2022/09/21 04:42:14;;;;;;;7.47;4.70;;;17.50;59.30;;;;;;5044706;28;20103;-80
2022/09/21 04:44:40;;;;;;;7.57;5.45;;;17.50;59.00;;;;;;5051529;28;20044;-84
2022/09/21 04:47:06;;;;;;;6.55;4.82;;;17.40;59.00;;;;;;5037441;28;20025;-84
2022/09/21 04:49:31;;;;;;;7.63;5.03;;;17.50;59.10;;;;;;5051690;28;20035;-85
2022/09/21 04:51:57;;;;;;;8.27;5.03;;;17.50;59.20;;;;;;5047408;28;20021;-91
2022/09/21 04:54:23;;;;;;;8.77;5.70;;;17.60;58.70;;;;;;5060466;28;20028;-86
2022/09/21 04:56:49;;;;;;;6.00;4.30;;;17.50;59.00;;;;;;5052793;28;20025;-80
2022/09/21 04:59:15;;;;;;;6.80;4.85;;;17.60;58.70;;;;;;5058478;28;20036;-92
2022/09/21 05:01:40;;;;;;;8.70;4.10;;;17.70;58.60;;;;;;5064344;28;20041;-85
2022/09/21 05:04:06;;;;;;;7.32;4.53;;;17.80;58.40;;;;;;5055899;28;20025;-87
2022/09/21 05:06:33;;;;;;;6.32;4.40;;;17.90;58.30;;;;;;5037011;28;20033;-82
2022/09/21 05:11:44;;;;;;;7.28;4.82;;;18.00;57.80;;;;;;4718731;28;10000060;-79
2022/09/21 05:14:10;;;;;;;6.38;4.45;;;17.90;58.30;;;;;;5072647;28;20075;-85
2022/09/21 05:16:36;;;;;;;6.30;4.18;;;17.70;58.80;;;;;;5073161;28;20032;-82
2022/09/21 05:19:03;;;;;;;11.50;6.28;;;17.80;58.70;;;;;;5055159;28;20113;-82
2022/09/21 05:21:30;;;;;;;6.40;4.30;;;17.80;58.40;;;;;;5053364;28;20025;-83
2022/09/21 05:23:57;;;;;;;7.03;4.35;;;17.60;58.60;;;;;;5070889;28;20048;-84
2022/09/21 05:26:22;;;;;;;6.28;4.50;;;17.70;58.90;;;;;;5071621;28;20025;-83
2022/09/21 05:28:48;;;;;;;8.73;4.30;;;17.50;58.90;;;;;;5054715;28;20032;-89
2022/09/21 05:31:17;;;;;;;18.05;5.10;;;17.60;59.00;;;;;;5054323;28;20391;-88
2022/09/21 05:34:14;;;;;;;7.50;4.88;;;17.60;58.80;;;;;;5072715;28;20126;-84
2022/09/21 05:36:54;;;;;;;6.13;4.40;;;17.40;59.20;;;;;;5046639;28;20372;-85
2022/09/21 05:39:20;;;;;;;6.65;4.47;;;17.50;59.50;;;;;;5052191;28;20024;-80
2022/09/21 05:41:46;;;;;;;8.70;4.57;;;17.60;59.60;;;;;;5054953;28;20074;-81
2022/09/21 05:44:13;;;;;;;7.25;5.30;;;17.60;59.80;;;;;;5038066;28;20029;-78
2022/09/21 05:46:41;;;;;;;7.00;4.72;;;17.70;59.60;;;;;;5055008;28;20544;-86
2022/09/21 05:49:30;;;;;;;7.80;4.68;;;17.60;59.10;;;;;;5056525;28;20352;-83
2022/09/21 05:52:05;;;;;;;6.88;4.90;;;17.70;59.00;;;;;;5076635;28;20070;-90
2022/09/21 05:55:01;;;;;;;7.28;4.68;;;18.00;59.10;;;;;;5042332;28;20034;-81
2022/09/21 05:57:44;;;;;;;9.05;4.70;;;18.10;58.60;;;;;;5076033;28;20017;-88
2022/09/21 06:00:16;;;;;;;7.18;4.53;;;18.20;58.50;;;;;;5056055;28;20163;-84
2022/09/21 06:02:54;;;;;;;6.32;4.38;;;18.20;58.60;;;;;;5038456;28;20428;-88
2022/09/21 06:05:20;;;;;;;7.40;4.60;;;18.10;58.70;;;;;;5039055;28;20025;-78
2022/09/21 06:07:46;;;;;;;7.40;3.90;;;18.20;58.60;;;;;;5070580;28;20087;-90
2022/09/21 06:10:12;;;;;;;6.70;4.03;;;18.40;58.40;;;;;;5072574;28;20048;-85
2022/09/21 06:12:38;;;;;;;6.78;4.30;;;18.60;58.40;;;;;;5076017;28;20031;-87
2022/09/21 06:15:05;;;;;;;6.07;4.32;;;18.70;57.80;;;;;;5057658;28;20048;-83
2022/09/21 06:17:32;;;;;;;6.55;4.07;;;18.80;57.40;;;;;;5065016;28;20112;-84
2022/09/21 06:19:58;;;;;;;5.80;4.25;;;18.60;57.60;;;;;;5076390;28;20115;-82
2022/09/21 06:22:24;;;;;;;6.15;4.45;;;18.70;57.70;;;;;;5058201;28;20054;-80
2022/09/21 06:24:49;;;;;;;5.43;3.90;;;18.70;58.00;;;;;;5076081;28;20032;-87
2022/09/21 06:27:15;;;;;;;7.43;4.00;;;18.80;58.10;;;;;;5058434;28;20051;-86
2022/09/21 06:29:41;;;;;;;6.68;4.53;;;18.80;57.90;;;;;;5075842;28;20036;-79
2022/09/21 06:32:06;;;;;;;7.25;4.32;;;19.00;58.00;;;;;;5056204;28;20092;-80
2022/09/21 06:34:32;;;;;;;6.38;4.47;;;18.80;58.40;;;;;;5074870;28;20500;-82
2022/09/21 06:36:58;;;;;;;6.63;4.65;;;18.80;58.20;;;;;;5058146;28;20028;-89
2022/09/21 06:39:23;;;;;;;7.43;4.45;;;19.20;58.00;;;;;;5057897;28;20035;-79
2022/09/21 06:41:51;;;;;;;6.72;4.70;;;19.20;57.70;;;;;;5057149;28;20466;-82
2022/09/21 06:44:16;;;;;;;5.90;4.07;;;19.20;57.60;;;;;;5056783;28;20035;-82
2022/09/21 06:46:42;;;;;;;6.43;4.40;;;19.40;57.60;;;;;;5075259;28;20028;-79
2022/09/21 06:49:08;;;;;;;6.07;4.43;;;19.60;57.00;;;;;;5057312;28;20024;-85
2022/09/21 06:51:35;;;;;;;5.85;3.97;;;19.70;57.00;;;;;;5054044;28;20025;-87
2022/09/21 06:54:00;;;;;;;7.25;4.40;;;19.80;56.90;;;;;;5057224;28;20051;-87
2022/09/21 06:56:54;;;;;;;7.95;4.00;;;19.70;57.00;;;;;;5054278;28;20017;-86
2022/09/21 06:59:20;;;;;;;5.70;4.15;;;19.90;56.90;;;;;;5055153;28;20029;-81
2022/09/21 07:01:46;;;;;;;6.20;4.07;;;19.90;56.50;;;;;;5037502;28;20021;-84
2022/09/21 07:04:11;;;;;;;6.32;4.35;;;20.00;56.70;;;;;;5037283;28;20029;-82
2022/09/21 07:06:40;;;;;;;6.75;4.28;;;19.90;56.80;;;;;;5037356;28;20108;-83
2022/09/21 07:09:06;;;;;;;5.40;3.88;;;19.80;57.20;;;;;;5054760;28;20025;-80
2022/09/21 07:11:32;;;;;;;6.30;3.97;;;19.80;56.90;;;;;;4722435;28;9999872;-80
2022/09/21 07:13:58;;;;;;;5.35;3.70;;;20.00;57.20;;;;;;5095866;28;20323;-94
2022/09/21 07:16:23;;;;;;;7.97;4.32;;;20.00;56.90;;;;;;5095189;28;20429;-80
2022/09/21 07:18:49;;;;;;;9.18;4.55;;;20.00;57.20;;;;;;5076797;28;20024;-79
2022/09/21 07:21:15;;;;;;;7.00;4.88;;;20.10;56.60;;;;;;5077329;28;20345;-84
2022/09/21 07:23:41;;;;;;;6.22;4.65;;;19.90;56.90;;;;;;5076783;28;20024;-84
2022/09/21 07:26:09;;;;;;;6.72;4.68;;;19.90;57.40;;;;;;5058733;28;20108;-86
2022/09/21 07:28:35;;;;;;;6.30;4.53;;;19.80;57.50;;;;;;5056666;28;20062;-78
2022/09/21 07:31:07;;;;;;;5.78;4.30;;;19.60;57.80;;;;;;5056510;28;20067;-87
2022/09/21 07:33:33;;;;;;;7.95;5.00;;;19.60;58.00;;;;;;5042113;28;20021;-84
2022/09/21 07:35:59;;;;;;;6.78;4.85;;;19.70;57.70;;;;;;5065262;28;20047;-84
2022/09/21 07:38:26;;;;;;;5.95;4.40;;;19.60;57.50;;;;;;5053170;28;20021;-88
2022/09/21 07:40:52;;;;;;;9.57;4.78;;;19.50;57.80;;;;;;5036011;28;20491;-80
2022/09/21 07:43:18;;;;;;;6.95;4.57;;;19.30;58.10;;;;;;5052223;28;20029;-82
2022/09/21 07:45:54;;;;;;;6.47;4.35;;;19.40;58.30;;;;;;5036309;28;20047;-83
2022/09/21 07:48:21;;;;;;;8.98;4.10;;;19.50;58.50;;;;;;5048053;28;20467;-86
2022/09/21 07:50:48;;;;;;;6.75;4.40;;;19.80;58.50;;;;;;5074789;28;20020;-87
2022/09/21 07:53:15;;;;;;;7.25;4.32;;;20.20;57.60;;;;;;5056536;28;20017;-82
2022/09/21 07:55:41;;;;;;;6.72;4.18;;;20.20;57.10;;;;;;5057300;28;20032;-90
2022/09/21 08:00:51;;;;;;;5.78;4.30;;;20.40;56.40;;;;;;5074654;28;20067;-87
2022/09/21 08:03:19;;;;;;;6.90;4.55;;;20.10;56.40;;;;;;5057420;28;20017;-88
2022/09/21 08:05:45;;;;;;;6.30;4.07;;;19.90;57.10;;;;;;5056899;28;20024;-86
2022/09/21 08:08:11;;;;;;;6.03;4.32;;;20.00;56.70;;;;;;5074271;28;20028;-79
2022/09/21 08:10:38;;;;;;;16.48;5.07;;;20.00;56.70;;;;;;5056779;28;20021;-85
2022/09/21 08:13:04;;;;;;;7.88;4.72;;;20.10;56.90;;;;;;5056150;28;20020;-84
2022/09/21 08:15:30;;;;;;;6.00;4.32;;;19.90;57.30;;;;;;5056497;28;20044;-85
2022/09/21 08:17:57;;;;;;;13.32;5.05;;;20.20;57.20;;;;;;5056541;28;20029;-92
2022/09/21 08:20:23;;;;;;;6.32;4.13;;;20.60;56.30;;;;;;5056679;28;20032;-86
2022/09/21 08:22:52;;;;;;;6.03;4.28;;;20.70;56.00;;;;;;5056052;28;20543;-87
2022/09/21 08:25:17;;;;;;;6.13;4.32;;;20.80;55.80;;;;;;5055969;28;20039;-81
2022/09/21 08:27:43;;;;;;;8.90;5.28;;;20.80;55.70;;;;;;5055994;28;20024;-87
2022/09/21 08:30:12;;;;;;;6.80;4.85;;;20.80;55.60;;;;;;5074723;28;20028;-80
2022/09/21 08:32:38;;;;;;;5.90;4.13;;;20.70;56.20;;;;;;5055781;28;20032;-91
2022/09/21 08:35:04;;;;;;;6.43;4.80;;;20.60;56.10;;;;;;5056300;28;20033;-94
2022/09/21 08:37:30;;;;;;;6.80;4.10;;;20.50;56.20;;;;;;5056147;28;20021;-84
2022/09/21 08:39:56;;;;;;;8.55;4.20;;;20.40;56.90;;;;;;5055889;28;20025;-84
2022/09/21 08:42:43;;;;;;;5.68;4.40;;;20.30;56.50;;;;;;5056075;28;20106;-83
2022/09/21 08:45:18;;;;;;;6.50;4.05;;;20.00;57.50;;;;;;5055631;28;20036;-84
2022/09/21 08:47:58;;;;;;;5.43;4.18;;;20.00;57.70;;;;;;5056925;28;20033;-87
2022/09/21 08:50:29;;;;;;;7.40;4.55;;;20.60;57.70;;;;;;5074357;28;20013;-91
2022/09/21 08:53:18;;;;;;;6.00;3.67;;;21.00;56.60;;;;;;5055942;28;20025;-82
2022/09/21 08:55:44;;;;;;;6.50;3.70;;;21.10;56.10;;;;;;5055564;28;20395;-86
2022/09/21 08:58:18;;;;;;;5.07;3.70;;;20.90;55.50;;;;;;5055983;28;20467;-83
2022/09/21 09:00:44;;;;;;;5.90;4.18;;;20.90;56.80;;;;;;5056200;28;20077;-83
2022/09/21 09:03:28;;;;;;;8.63;3.75;;;21.10;56.20;;;;;;5056341;28;20493;-80
2022/09/21 09:05:56;;;;;;;5.85;4.07;;;21.40;55.90;;;;;;5056009;28;20124;-80
2022/09/21 09:08:28;;;;;;;5.38;4.07;;;21.60;55.40;;;;;;5055773;28;20528;-81
2022/09/21 09:11:11;;;;;;;6.18;3.65;;;21.80;55.50;;;;;;5073108;28;20082;-93
2022/09/21 09:13:50;;;;;;;6.65;3.78;;;21.70;55.60;;;;;;5055499;28;20017;-79
2022/09/21 09:16:38;;;;;;;4.93;3.40;;;21.80;55.30;;;;;;5056522;28;20045;-91
2022/09/21 09:19:25;;;;;;;7.35;3.47;;;21.80;55.90;;;;;;5055175;28;20037;-82
2022/09/21 09:21:51;;;;;;;5.30;3.33;;;21.90;55.10;;;;;;5073009;28;20024;-82
2022/09/21 09:24:42;;;;;;;5.18;3.50;;;21.90;55.10;;;;;;5058525;28;20025;-84
2022/09/21 09:27:15;;;;;;;5.30;3.30;;;21.90;55.00;;;;;;5077437;28;20033;-85
2022/09/21 09:30:00;;;;;;;5.45;3.85;;;22.30;55.10;;;;;;5059304;28;20025;-83
2022/09/21 09:33:00;;;;;;;6.40;2.97;;;22.60;54.40;;;;;;5060034;28;20418;-92
2022/09/21 09:35:44;;;;;;;4.80;3.67;;;23.00;53.90;;;;;;5072420;28;20101;-85
2022/09/21 09:38:30;;;;;;;3.90;2.40;;;23.30;53.50;;;;;;5059335;28;20028;-82
2022/09/21 09:41:06;;;;;;;4.32;2.45;;;23.40;53.10;;;;;;5058744;28;20425;-88
2022/09/21 09:43:41;;;;;;;3.80;2.38;;;23.60;52.60;;;;;;5076982;28;20020;-83
2022/09/21 09:46:23;;;;;;;4.30;2.50;;;23.70;52.70;;;;;;5058527;28;20067;-82
2022/09/21 09:49:10;;;;;;;4.82;2.50;;;24.00;52.00;;;;;;5058961;28;20059;-81
2022/09/21 09:51:38;;;;;;;6.25;2.40;;;24.40;50.00;;;;;;5076702;28;20081;-91
2022/09/21 09:54:11;;;;;;;5.57;2.47;;;24.10;51.20;;;;;;5076334;28;20039;-82
2022/09/21 09:56:37;;;;;;;3.60;2.50;;;23.90;51.00;;;;;;5076572;28;20071;-86
2022/09/21 09:59:09;;;;;;;3.58;2.30;;;23.80;51.30;;;;;;5076594;28;20033;-81
2022/09/21 10:01:41;;;;;;;5.15;2.67;;;23.50;51.10;;;;;;5058250;28;20441;-83
2022/09/21 10:04:09;;;;;;;3.67;2.40;;;23.70;51.40;;;;;;5058425;28;20025;-89
2022/09/21 10:06:35;;;;;;;3.70;2.40;;;23.70;51.00;;;;;;5076173;28;20023;-84
2022/09/21 10:09:16;;;;;;;3.60;2.25;;;23.80;50.90;;;;;;5058818;28;20093;-80
2022/09/21 10:11:41;;;;;;;3.40;2.15;;;23.90;49.90;;;;;;5076114;28;20109;-83
2022/09/21 10:14:09;;;;;;;4.38;2.30;;;23.90;49.10;;;;;;5058165;28;20123;-91
2022/09/21 10:16:40;;;;;;;3.80;2.20;;;24.20;49.60;;;;;;5076500;28;20395;-90
2022/09/21 10:19:18;;;;;;;4.22;2.20;;;24.50;49.30;;;;;;5058475;28;20040;-91
2022/09/21 10:21:45;;;;;;;3.20;2.10;;;24.60;49.40;;;;;;5058138;28;20032;-84
2022/09/21 10:24:25;;;;;;;3.33;1.98;;;24.80;50.00;;;;;;5058382;28;20044;-92
2022/09/21 10:27:02;;;;;;;3.80;2.30;;;24.50;48.00;;;;;;5058727;28;20119;-88
2022/09/21 10:29:47;;;;;;;4.63;1.90;;;24.20;49.20;;;;;;5058485;28;20398;-84
2022/09/21 10:32:12;;;;;;;3.58;2.05;;;24.50;49.60;;;;;;5058261;28;20497;-84
2022/09/21 10:34:40;;;;;;;4.07;1.90;;;24.40;48.80;;;;;;5057054;28;20131;-82
2022/09/21 10:37:33;;;;;;;3.30;2.10;;;24.50;47.80;;;;;;5057767;28;20529;-80
2022/09/21 10:40:00;;;;;;;2.95;1.70;;;24.30;48.20;;;;;;5058051;28;20031;-82
2022/09/21 10:42:35;;;;;;;4.25;1.98;;;24.00;49.60;;;;;;5075576;28;20398;-84
2022/09/21 10:45:42;;;;;;;3.33;1.90;;;24.60;48.40;;;;;;5057574;28;20145;-82
2022/09/21 10:48:15;;;;;;;3.17;2.00;;;24.70;47.60;;;;;;5056301;28;20044;-85
2022/09/21 10:50:48;;;;;;;7.78;2.17;;;24.60;47.80;;;;;;5057594;28;20039;-85
2022/09/21 10:53:30;;;;;;;4.18;1.80;;;24.70;48.30;;;;;;5075587;28;20099;-82
2022/09/21 10:56:18;;;;;;;2.97;1.70;;;24.60;48.40;;;;;;5057905;28;20348;-80
2022/09/21 10:59:13;;;;;;;3.38;1.80;;;24.60;48.20;;;;;;5075262;28;20427;-84
2022/09/21 11:01:53;;;;;;;3.28;1.77;;;24.60;48.50;;;;;;5057215;28;20036;-81
2022/09/21 11:04:45;;;;;;;5.73;1.77;;;24.50;48.70;;;;;;5075100;28;20016;-89
2022/09/21 11:07:31;;;;;;;5.25;1.80;;;24.30;49.20;;;;;;5057443;28;20354;-89
2022/09/21 11:10:41;;;;;;;3.10;1.77;;;23.90;48.10;;;;;;5057401;28;20024;-87
2022/09/21 11:13:24;;;;;;;2.90;1.80;;;24.00;50.10;;;;;;5013426;28;20084;-84
2022/09/21 11:16:23;;;;;;;3.60;1.80;;;24.40;49.60;;;;;;4996348;28;20485;-84
2022/09/21 11:19:03;;;;;;;3.25;1.80;;;24.70;48.30;;;;;;4996924;28;20073;-84
2022/09/21 11:21:56;;;;;;;3.35;1.80;;;25.00;49.80;;;;;;4997113;28;20037;-85
2022/09/21 11:24:42;;;;;;;2.50;1.58;;;25.30;48.10;;;;;;4996961;28;20503;-84
2022/09/21 11:27:18;;;;;;;3.08;1.67;;;24.90;48.20;;;;;;5013182;28;20432;-84
2022/09/21 11:30:08;;;;;;;3.05;1.88;;;24.90;48.80;;;;;;5013190;28;20161;-81
2022/09/21 11:32:48;;;;;;;3.50;1.87;;;24.60;47.00;;;;;;5013140;28;20026;-86
2022/09/21 11:35:24;;;;;;;4.55;1.90;;;24.60;48.10;;;;;;4996510;28;20766;-81
2022/09/21 11:38:26;;;;;;;3.50;2.00;;;24.20;48.50;;;;;;4996778;28;20021;-85
2022/09/21 11:41:17;;;;;;;3.35;1.85;;;24.30;48.80;;;;;;4996425;28;20033;-84
2022/09/21 11:43:46;;;;;;;3.05;1.70;;;24.40;48.80;;;;;;4996578;28;20100;-79
2022/09/21 11:46:34;;;;;;;2.97;1.80;;;24.60;48.00;;;;;;5024718;28;20067;-85
2022/09/21 11:49:18;;;;;;;3.28;1.67;;;24.40;48.00;;;;;;5056832;28;20067;-86
2022/09/21 11:52:02;;;;;;;2.90;1.70;;;24.30;46.90;;;;;;5056736;28;20083;-88
2022/09/21 11:55:09;;;;;;;3.20;1.70;;;24.20;48.30;;;;;;5056824;28;20036;-80
2022/09/21 11:57:56;;;;;;;3.33;1.80;;;24.40;48.10;;;;;;5012563;28;20064;-86
2022/09/21 12:00:23;;;;;;;3.38;2.00;;;24.50;48.60;;;;;;4996532;28;20129;-90
2022/09/21 12:03:28;;;;;;;3.13;1.50;;;24.30;46.80;;;;;;5013081;28;20022;-81
2022/09/21 12:06:13;;;;;;;3.03;1.80;;;24.40;46.70;;;;;;4996160;28;20128;-82
2022/09/21 12:09:03;;;;;;;4.22;1.70;;;24.70;48.80;;;;;;4996086;28;20022;-82
2022/09/21 12:11:37;;;;;;;2.80;1.70;;;24.90;47.50;;;;;;4996008;28;20018;-80
2022/09/21 12:14:18;;;;;;;3.40;2.13;;;24.90;46.00;;;;;;4995891;28;20085;-81
2022/09/21 12:16:54;;;;;;;2.70;1.63;;;24.70;45.90;;;;;;4979909;28;20041;-84
2022/09/21 12:19:32;;;;;;;2.63;1.40;;;24.50;45.20;;;;;;5012179;28;20040;-81
2022/09/21 12:22:22;;;;;;;2.70;1.70;;;24.30;46.10;;;;;;5011976;28;20030;-81
2022/09/21 12:25:09;;;;;;;4.15;2.10;;;24.50;46.90;;;;;;4996070;28;20080;-82
2022/09/21 12:27:49;;;;;;;3.03;1.80;;;24.90;46.50;;;;;;5012417;28;20058;-83
2022/09/21 12:30:18;;;;;;;3.03;1.90;;;25.00;46.20;;;;;;4995871;28;20060;-88
2022/09/21 12:32:49;;;;;;;3.00;1.70;;;24.90;46.00;;;;;;5014635;28;20033;-82
2022/09/21 12:35:39;;;;;;;2.25;1.30;;;24.70;44.90;;;;;;5055735;28;20032;-85
2022/09/21 12:38:44;;;;;;;3.03;1.50;;;23.80;44.00;;;;;;5055564;28;20043;-81
2022/09/21 12:41:22;;;;;;;2.42;1.30;;;23.60;45.20;;;;;;5011638;28;20044;-81
2022/09/21 12:43:52;;;;;;;2.40;1.40;;;23.60;45.40;;;;;;4995167;28;20060;-87
2022/09/21 12:46:29;;;;;;;11.77;5.85;;;23.70;46.20;;;;;;5012167;28;20048;-85
2022/09/21 12:48:58;;;;;;;5.45;3.17;;;23.90;45.50;;;;;;5012216;28;20034;-84
2022/09/21 12:51:31;;;;;;;6.07;2.70;;;23.90;44.90;;;;;;4995456;28;20034;-77
2022/09/21 12:54:00;;;;;;;3.25;1.70;;;24.10;45.00;;;;;;4995238;28;20033;-81
2022/09/21 12:56:36;;;;;;;6.22;3.47;;;24.20;45.60;;;;;;4995435;28;20033;-86
2022/09/21 12:59:33;;;;;;;7.10;4.20;;;24.00;44.80;;;;;;4998155;28;20037;-88
2022/09/21 13:02:18;;;;;;;4.32;1.80;;;23.80;45.70;;;;;;4999343;28;20081;-85
2022/09/21 13:05:24;;;;;;;5.63;2.50;;;23.80;46.00;;;;;;4999279;28;20129;-81
2022/09/21 13:08:03;;;;;;;5.28;2.70;;;24.00;46.50;;;;;;4999407;28;20598;-78
2022/09/21 13:10:43;;;;;;;6.28;3.70;;;24.00;45.80;;;;;;4999488;28;20034;-84
2022/09/21 13:13:16;;;;;;;;;;;24.30;45.80;;;;;;5015907;28;20026;-84
2022/09/21 13:15:47;;;;;;;3.42;2.10;;;24.40;44.80;;;;;;5003230;28;20331;-80
2022/09/21 13:18:41;;;;;;;3.35;2.05;;;24.10;44.80;;;;;;5059290;28;20429;-81
2022/09/21 13:21:19;;;;;;;3.03;1.58;;;24.00;46.40;;;;;;5053920;28;20036;-86
2022/09/21 13:23:59;;;;;;;6.07;3.72;;;24.50;44.90;;;;;;5077008;28;20024;-76